createdAt,value
2018-04-17T00:01:16.470Z,24.20
2018-04-17T00:04:18.985Z,26.47
2018-04-17T00:07:21.452Z,26.57
2018-04-17T00:10:23.961Z,26.13
2018-04-17T00:13:26.475Z,26.63
2018-04-17T00:16:28.932Z,24.63
2018-04-17T00:19:31.551Z,26.17
2018-04-17T00:22:34.031Z,26.40
2018-04-17T00:25:36.519Z,26.27
2018-04-17T00:28:39.011Z,25.50
2018-04-17T00:31:41.555Z,26.20
2018-04-17T00:34:43.989Z,26.30
2018-04-17T00:37:46.496Z,26.90
2018-04-17T00:40:49.094Z,27.33
2018-04-17T00:43:51.560Z,26.00
2018-04-17T00:46:54.052Z,26.97
2018-04-17T00:49:56.537Z,26.63
2018-04-17T00:52:59.016Z,28.60
2018-04-17T00:56:01.489Z,27.90
2018-04-17T00:59:04.046Z,26.90
2018-04-17T01:02:06.522Z,30.03
2018-04-17T01:05:09.013Z,29.10
2018-04-17T01:08:11.541Z,29.33
2018-04-17T01:11:14.047Z,29.90
2018-04-17T01:14:16.519Z,31.80
2018-04-17T01:17:18.987Z,32.10
2018-04-17T01:20:21.490Z,29.60
2018-04-17T01:23:23.946Z,29.90
2018-04-17T01:26:26.439Z,29.30
2018-04-17T01:29:28.898Z,31.10
2018-04-17T01:32:31.351Z,31.10
2018-04-17T01:35:33.892Z,30.93
2018-04-17T01:38:36.332Z,31.37
2018-04-17T01:41:38.788Z,29.50
2018-04-17T01:44:41.233Z,30.43
2018-04-17T01:47:43.719Z,29.30
2018-04-17T01:50:46.196Z,28.27
2018-04-17T01:53:48.669Z,28.80
2018-04-17T01:56:51.134Z,30.80
2018-04-17T01:59:53.609Z,29.00
2018-04-17T02:02:56.100Z,29.00
2018-04-17T02:05:58.602Z,28.90
2018-04-17T02:09:01.120Z,28.60
2018-04-17T02:12:03.621Z,29.47
2018-04-17T02:15:06.167Z,28.70
2018-04-17T02:18:08.731Z,28.07
2018-04-17T02:21:11.175Z,28.77
2018-04-17T02:24:13.754Z,30.70
2018-04-17T02:27:16.216Z,28.33
2018-04-17T02:30:18.771Z,29.10
2018-04-17T02:33:21.232Z,30.60
2018-04-17T02:36:23.753Z,28.70
2018-04-17T02:39:26.212Z,29.73
2018-04-17T02:42:28.727Z,31.37
2018-04-17T02:45:31.222Z,31.90
2018-04-17T02:48:33.687Z,33.03
2018-04-17T02:51:36.192Z,33.00
2018-04-17T02:54:38.705Z,32.10
2018-04-17T02:57:41.161Z,33.23
2018-04-17T03:00:43.730Z,34.73
2018-04-17T03:03:46.245Z,37.20
2018-04-17T03:06:48.793Z,33.67
2018-04-17T03:09:51.284Z,33.53
2018-04-17T03:12:53.825Z,35.23
2018-04-17T03:15:56.349Z,34.33
2018-04-17T03:18:58.825Z,35.17
2018-04-17T03:22:01.324Z,34.10
2018-04-17T03:25:03.889Z,33.67
2018-04-17T03:28:06.388Z,34.20
2018-04-17T03:31:08.853Z,35.00
2018-04-17T03:34:11.356Z,34.90
2018-04-17T03:37:13.959Z,33.83
2018-04-17T03:40:16.530Z,36.23
2018-04-17T03:43:18.999Z,35.40
2018-04-17T03:46:21.518Z,35.30
2018-04-17T03:49:24.025Z,37.47
2018-04-17T03:52:26.500Z,36.70
2018-04-17T03:55:29.033Z,38.20
2018-04-17T03:58:31.562Z,37.60
2018-04-17T04:01:34.110Z,39.33
2018-04-17T04:04:36.610Z,38.63
2018-04-17T04:07:39.072Z,38.13
2018-04-17T04:10:41.574Z,38.57
2018-04-17T04:13:44.024Z,39.77
2018-04-17T04:16:58.384Z,39.07
2018-04-17T04:20:12.686Z,42.57
2018-04-17T04:23:27.159Z,44.57
2018-04-17T04:26:31.358Z,46.40
2018-04-17T04:29:33.861Z,43.63
2018-04-17T04:32:36.359Z,42.97
2018-04-17T04:35:38.953Z,43.10
2018-04-17T04:38:41.516Z,43.37
2018-04-17T04:41:44.142Z,42.00
2018-04-17T04:44:46.755Z,45.00
2018-04-17T04:47:49.258Z,45.67
2018-04-17T04:50:51.783Z,46.00
2018-04-17T04:53:54.280Z,47.37
2018-04-17T04:56:56.771Z,46.70
2018-04-17T04:59:59.268Z,45.17
2018-04-17T05:03:01.823Z,44.60
2018-04-17T05:06:04.338Z,42.83
2018-04-17T05:09:06.811Z,41.63
2018-04-17T05:12:09.334Z,40.53
2018-04-17T05:15:11.819Z,39.57
2018-04-17T05:18:14.316Z,39.57
2018-04-17T05:21:16.796Z,35.60
2018-04-17T05:24:19.306Z,32.60
2018-04-17T05:27:21.810Z,31.50
2018-04-17T05:30:24.328Z,30.10
2018-04-17T05:33:26.834Z,28.30
2018-04-17T05:36:29.296Z,28.00
2018-04-17T05:39:31.766Z,28.00
2018-04-17T05:42:34.231Z,27.33
2018-04-17T05:45:36.676Z,25.90
2018-04-17T05:48:39.214Z,24.90
2018-04-17T05:51:41.684Z,25.27
2018-04-17T05:54:44.184Z,26.80
2018-04-17T05:57:46.692Z,25.70
2018-04-17T06:00:49.136Z,25.00
2018-04-17T06:03:51.630Z,25.77
2018-04-17T06:06:54.066Z,25.73
2018-04-17T06:09:56.612Z,26.73
2018-04-17T06:12:59.115Z,26.57
2018-04-17T06:16:01.606Z,26.13
2018-04-17T06:19:04.196Z,27.10
2018-04-17T06:22:06.697Z,26.90
2018-04-17T06:25:09.177Z,28.70
2018-04-17T06:28:11.667Z,28.77
2018-04-17T06:31:14.115Z,27.10
2018-04-17T06:34:16.576Z,26.40
2018-04-17T06:37:19.020Z,25.40
2018-04-17T06:40:21.514Z,25.50
2018-04-17T06:43:23.981Z,24.43
2018-04-17T06:46:26.462Z,24.33
2018-04-17T06:49:29.000Z,23.37
2018-04-17T06:52:31.481Z,23.93
2018-04-17T06:55:33.981Z,25.80
2018-04-17T06:58:36.460Z,27.83
2018-04-17T07:01:38.996Z,28.23
2018-04-17T07:04:41.467Z,27.20
2018-04-17T07:07:44.028Z,29.23
2018-04-17T07:10:46.584Z,28.97
2018-04-17T07:13:49.248Z,29.67
2018-04-17T07:16:51.698Z,29.00
2018-04-17T07:19:54.187Z,29.30
2018-04-17T07:22:56.668Z,30.40
2018-04-17T07:25:59.206Z,30.37
2018-04-17T07:29:01.701Z,29.83
2018-04-17T07:32:04.154Z,28.37
2018-04-17T07:35:06.647Z,29.07
2018-04-17T07:38:09.131Z,26.50
2018-04-17T07:41:11.627Z,25.07
2018-04-17T07:44:14.090Z,25.43
2018-04-17T07:47:30.363Z,27.20
2018-04-17T07:50:32.823Z,26.60
2018-04-17T07:53:36.938Z,26.87
2018-04-17T07:56:39.454Z,25.40
2018-04-17T07:59:41.936Z,24.73
2018-04-17T08:02:44.481Z,24.20
2018-04-17T08:05:46.926Z,24.73
2018-04-17T08:08:49.504Z,24.00
2018-04-17T08:11:51.984Z,25.30
2018-04-17T08:14:54.507Z,26.13
2018-04-17T08:17:56.967Z,24.40
2018-04-17T08:20:59.467Z,23.57
2018-04-17T08:24:01.999Z,25.90
2018-04-17T08:27:04.457Z,25.33
2018-04-17T08:30:06.972Z,25.83
2018-04-17T08:33:09.514Z,26.20
2018-04-17T08:36:12.018Z,26.20
2018-04-17T08:39:14.517Z,26.27
2018-04-17T08:42:16.997Z,25.90
2018-04-17T08:45:19.473Z,28.90
2018-04-17T08:48:22.053Z,26.40
2018-04-17T08:51:24.604Z,26.77
2018-04-17T08:54:27.091Z,28.03
2018-04-17T08:57:29.631Z,27.43
2018-04-17T09:00:32.113Z,28.40
2018-04-17T09:03:34.608Z,26.20
2018-04-17T09:06:37.083Z,26.53
2018-04-17T09:09:39.637Z,27.07
2018-04-17T09:12:42.091Z,25.97
2018-04-17T09:15:44.568Z,25.50
2018-04-17T09:18:47.128Z,26.40
2018-04-17T09:21:49.681Z,26.10
2018-04-17T09:24:52.249Z,25.07
2018-04-17T09:27:54.716Z,25.10
2018-04-17T09:30:57.229Z,23.90
2018-04-17T09:33:59.740Z,23.23
2018-04-17T09:37:02.245Z,23.27
2018-04-17T09:40:04.704Z,20.63
2018-04-17T09:43:07.193Z,22.80
2018-04-17T09:46:09.669Z,21.20
2018-04-17T09:49:12.172Z,21.60
2018-04-17T09:52:14.650Z,19.50
2018-04-17T09:55:17.103Z,21.37
2018-04-17T09:58:19.593Z,22.60
2018-04-17T10:01:22.093Z,23.37
2018-04-17T10:04:24.644Z,22.33
2018-04-17T10:07:27.142Z,21.23
2018-04-17T10:10:29.659Z,20.57
2018-04-17T10:13:32.236Z,20.03
2018-04-17T10:16:34.699Z,20.80
2018-04-17T10:19:37.197Z,19.40
2018-04-17T10:22:39.712Z,17.53
2018-04-17T10:25:42.208Z,18.23
2018-04-17T10:28:44.691Z,16.30
2018-04-17T10:31:47.196Z,14.97
2018-04-17T10:34:49.666Z,11.70
2018-04-17T10:37:52.167Z,10.70
2018-04-17T10:40:54.667Z,11.17
2018-04-17T10:43:57.150Z,11.07
2018-04-17T10:46:59.598Z,10.70
2018-04-17T10:50:02.138Z,10.20
2018-04-17T10:53:04.649Z,11.90
2018-04-17T10:56:07.176Z,11.10
2018-04-17T10:59:09.676Z,11.37
2018-04-17T11:02:12.144Z,12.67
2018-04-17T11:05:14.659Z,10.93
2018-04-17T11:08:17.122Z,11.70
2018-04-17T11:11:19.699Z,10.73
2018-04-17T11:14:22.260Z,10.10
2018-04-17T11:17:24.819Z,8.10
2018-04-17T11:20:27.379Z,7.00
2018-04-17T11:23:29.879Z,7.23
2018-04-17T11:26:32.344Z,7.37
2018-04-17T11:29:34.866Z,6.90
2018-04-17T11:32:37.314Z,6.00
2018-04-17T11:35:39.899Z,6.80
2018-04-17T11:38:42.389Z,5.63
2018-04-17T11:41:44.898Z,5.37
2018-04-17T11:44:47.355Z,5.43
2018-04-17T11:47:49.819Z,5.80
2018-04-17T11:50:52.324Z,5.63
2018-04-17T11:53:54.835Z,5.37
2018-04-17T11:56:57.372Z,6.00
2018-04-17T11:59:59.829Z,5.83
2018-04-17T12:03:06.105Z,6.23
2018-04-17T12:06:08.665Z,7.20
2018-04-17T12:09:11.178Z,6.20
2018-04-17T12:12:13.668Z,7.20
2018-04-17T12:15:16.156Z,7.57
2018-04-17T12:18:18.691Z,7.60
2018-04-17T12:21:21.210Z,7.70
2018-04-17T12:24:23.654Z,9.43
2018-04-17T12:27:26.144Z,8.10
2018-04-17T12:30:28.620Z,8.60
2018-04-17T12:33:31.138Z,8.20
2018-04-17T12:36:33.647Z,8.60
2018-04-17T12:39:36.139Z,9.77
2018-04-17T12:42:38.600Z,10.43
2018-04-17T12:45:41.111Z,9.43
2018-04-17T12:48:43.574Z,9.27
2018-04-17T12:51:46.077Z,10.30
2018-04-17T12:54:48.563Z,8.27
2018-04-17T12:57:51.039Z,9.43
2018-04-17T13:00:53.550Z,8.60
2018-04-17T13:03:56.028Z,9.53
2018-04-17T13:06:58.572Z,10.50
2018-04-17T13:10:01.039Z,10.70
2018-04-17T13:13:03.539Z,9.90
2018-04-17T13:16:06.102Z,11.00
2018-04-17T13:19:08.614Z,9.97
2018-04-17T13:22:11.105Z,10.10
2018-04-17T13:25:13.589Z,9.80
2018-04-17T13:28:16.091Z,11.40
2018-04-17T13:31:18.535Z,9.87
2018-04-17T13:34:21.070Z,10.03
2018-04-17T13:37:23.532Z,10.00
2018-04-17T13:40:26.021Z,9.13
2018-04-17T13:43:28.543Z,10.60
2018-04-17T13:46:31.056Z,10.60
2018-04-17T13:49:33.578Z,9.90
2018-04-17T13:52:36.105Z,10.60
2018-04-17T13:55:38.576Z,9.43
2018-04-17T13:58:41.060Z,11.50
2018-04-17T14:01:43.622Z,9.80
2018-04-17T14:04:46.110Z,10.73
2018-04-17T14:07:48.609Z,10.30
2018-04-17T14:10:51.206Z,10.20
2018-04-17T14:13:53.763Z,10.67
2018-04-17T14:16:56.254Z,10.43
2018-04-17T14:19:58.721Z,8.50
2018-04-17T14:23:01.226Z,8.57
2018-04-17T14:26:03.734Z,7.73
2018-04-17T14:29:06.234Z,7.73
2018-04-17T14:32:08.835Z,8.03
2018-04-17T14:35:11.361Z,8.17
2018-04-17T14:38:13.948Z,7.63
2018-04-17T14:41:16.428Z,7.80
2018-04-17T14:44:18.996Z,8.13
2018-04-17T14:47:21.525Z,8.53
2018-04-17T14:50:23.982Z,9.60
2018-04-17T14:53:26.477Z,9.30
2018-04-17T14:56:28.983Z,7.70
2018-04-17T14:59:31.580Z,8.23
2018-04-17T15:02:36.524Z,8.53
2018-04-17T15:05:39.241Z,8.00
2018-04-17T15:08:41.767Z,8.30
2018-04-17T15:11:44.235Z,8.43
2018-04-17T15:14:46.723Z,7.10
2018-04-17T15:17:49.223Z,7.87
2018-04-17T15:20:51.683Z,7.73
2018-04-17T15:23:54.248Z,6.53
2018-04-17T15:26:56.697Z,8.97
2018-04-17T15:29:59.477Z,8.10
2018-04-17T15:33:01.942Z,7.87
2018-04-17T15:36:04.423Z,8.97
2018-04-17T15:39:06.962Z,9.27
2018-04-17T15:42:09.417Z,7.70
2018-04-17T15:45:11.987Z,8.60
2018-04-17T15:48:14.502Z,7.57
2018-04-17T15:51:17.013Z,7.80
2018-04-17T15:54:19.482Z,8.17
2018-04-17T15:57:22.032Z,8.60
2018-04-17T16:00:24.593Z,8.20
2018-04-17T16:03:27.162Z,8.20
2018-04-17T16:06:29.721Z,9.33
2018-04-17T16:09:32.188Z,9.10
2018-04-17T16:12:34.696Z,8.87
2018-04-17T16:15:37.132Z,9.00
2018-04-17T16:18:39.609Z,13.10
2018-04-17T16:21:42.113Z,8.97
2018-04-17T16:24:44.649Z,7.23
2018-04-17T16:27:47.133Z,8.37
2018-04-17T16:30:49.634Z,9.67
2018-04-17T16:33:52.130Z,8.93
2018-04-17T16:36:54.613Z,9.70
2018-04-17T16:39:57.094Z,8.83
2018-04-17T16:42:59.571Z,9.30
2018-04-17T16:46:02.080Z,9.33
2018-04-17T16:49:04.679Z,8.70
2018-04-17T16:52:07.144Z,10.00
2018-04-17T16:55:09.611Z,8.57
2018-04-17T16:58:12.172Z,10.10
2018-04-17T17:01:14.739Z,9.80
2018-04-17T17:04:17.169Z,9.33
2018-04-17T17:07:19.688Z,9.70
2018-04-17T17:10:22.213Z,8.33
2018-04-17T17:13:24.744Z,9.40
2018-04-17T17:16:27.336Z,10.17
2018-04-17T17:19:29.899Z,9.87
2018-04-17T17:22:32.559Z,9.80
2018-04-17T17:25:35.106Z,11.70
2018-04-17T17:28:37.590Z,12.17
2018-04-17T17:31:40.099Z,8.03
2018-04-17T17:34:42.624Z,6.93
2018-04-17T17:37:45.143Z,8.30
2018-04-17T17:40:47.693Z,8.37
2018-04-17T17:43:50.307Z,7.87
2018-04-17T17:46:52.825Z,8.87
2018-04-17T17:49:55.322Z,8.20
2018-04-17T17:52:57.894Z,8.37
2018-04-17T17:56:00.461Z,8.67
2018-04-17T17:59:03.031Z,9.43
2018-04-17T18:02:05.564Z,10.00
2018-04-17T18:05:08.145Z,10.77
2018-04-17T18:08:10.828Z,11.50
2018-04-17T18:11:13.523Z,11.80
2018-04-17T18:14:16.032Z,10.57
2018-04-17T18:17:18.531Z,10.17
2018-04-17T18:20:21.044Z,10.07
2018-04-17T18:23:23.526Z,10.67
2018-04-17T18:26:26.100Z,11.53
2018-04-17T18:29:28.569Z,10.97
2018-04-17T18:32:31.103Z,11.00
2018-04-17T18:35:33.599Z,10.77
2018-04-17T18:38:36.141Z,11.43
2018-04-17T18:41:38.621Z,11.60
2018-04-17T18:44:41.155Z,10.67
2018-04-17T18:47:43.685Z,11.63
2018-04-17T18:50:46.166Z,10.63
2018-04-17T18:53:48.708Z,11.27
2018-04-17T18:56:51.236Z,11.83
2018-04-17T18:59:53.785Z,12.47
2018-04-17T19:02:56.365Z,11.17
2018-04-17T19:05:58.861Z,11.80
2018-04-17T19:09:01.378Z,13.17
2018-04-17T19:12:03.899Z,12.90
2018-04-17T19:15:06.587Z,12.20
2018-04-17T19:18:09.234Z,13.10
2018-04-17T19:21:11.786Z,12.73
2018-04-17T19:24:14.368Z,12.20
2018-04-17T19:27:16.919Z,12.27
2018-04-17T19:30:19.512Z,13.00
2018-04-17T19:33:22.965Z,12.20
2018-04-17T19:36:25.503Z,11.67
2018-04-17T19:39:28.042Z,12.40
2018-04-17T19:42:30.509Z,12.13
2018-04-17T19:45:33.272Z,11.20
2018-04-17T19:48:35.788Z,11.90
2018-04-17T19:51:38.291Z,11.47
2018-04-17T19:54:40.880Z,10.70
2018-04-17T19:57:44.259Z,11.23
2018-04-17T20:00:49.674Z,11.30
2018-04-17T20:03:52.453Z,11.70
2018-04-17T20:06:54.943Z,12.07
2018-04-17T20:09:57.465Z,12.17
2018-04-17T20:13:00.040Z,11.07
2018-04-17T20:16:02.516Z,11.40
2018-04-17T20:19:05.157Z,11.20
2018-04-17T20:22:07.679Z,12.43
2018-04-17T20:25:10.163Z,11.13
2018-04-17T20:28:12.670Z,11.40
2018-04-17T20:31:15.246Z,11.80
2018-04-17T20:34:17.730Z,11.33
2018-04-17T20:37:20.247Z,12.40
2018-04-17T20:40:22.763Z,11.83
2018-04-17T20:43:25.243Z,10.70
2018-04-17T20:46:27.793Z,9.50
2018-04-17T20:49:30.253Z,9.80
2018-04-17T20:52:32.765Z,10.10
2018-04-17T20:55:35.268Z,10.40
2018-04-17T20:58:37.800Z,10.00
2018-04-17T21:01:40.275Z,9.90
2018-04-17T21:04:42.776Z,9.50
2018-04-17T21:07:45.230Z,9.50
2018-04-17T21:10:47.761Z,9.30
2018-04-17T21:13:50.238Z,9.23
2018-04-17T21:16:52.742Z,8.13
2018-04-17T21:19:55.233Z,9.60
2018-04-17T21:22:57.815Z,9.60
2018-04-17T21:26:00.347Z,9.20
2018-04-17T21:29:02.823Z,9.93
2018-04-17T21:32:05.316Z,9.00
2018-04-17T21:35:07.820Z,9.60
2018-04-17T21:38:10.312Z,10.43
2018-04-17T21:41:12.867Z,10.13
2018-04-17T21:44:15.336Z,10.33
2018-04-17T21:47:17.875Z,10.30
2018-04-17T21:50:20.386Z,10.57
2018-04-17T21:53:22.924Z,10.57
2018-04-17T21:56:25.423Z,10.77
2018-04-17T21:59:27.926Z,9.50
2018-04-17T22:02:30.424Z,9.57
2018-04-17T22:05:32.896Z,9.50
2018-04-17T22:08:35.418Z,9.83
2018-04-17T22:11:37.963Z,10.97
2018-04-17T22:14:40.509Z,10.07
2018-04-17T22:17:42.954Z,9.77
2018-04-17T22:20:45.442Z,10.20
2018-04-17T22:23:47.916Z,11.00
2018-04-17T22:26:50.542Z,10.70
2018-04-17T22:29:52.974Z,9.73
2018-04-17T22:32:55.440Z,10.67
2018-04-17T22:35:57.917Z,10.77
2018-04-17T22:39:00.508Z,10.60
2018-04-17T22:42:02.986Z,10.73
2018-04-17T22:45:05.477Z,11.43
2018-04-17T22:48:07.965Z,10.73
2018-04-17T22:51:10.522Z,11.17
2018-04-17T22:54:12.985Z,11.00
2018-04-17T22:57:15.481Z,10.70
2018-04-17T23:00:17.941Z,11.00
2018-04-17T23:03:20.446Z,10.30
2018-04-17T23:06:22.990Z,11.27
2018-04-17T23:09:25.465Z,9.90
2018-04-17T23:12:27.957Z,10.60
2018-04-17T23:15:30.402Z,9.67
2018-04-17T23:18:32.866Z,12.60
2018-04-17T23:21:35.355Z,10.70
2018-04-17T23:24:37.832Z,10.70
2018-04-17T23:27:40.412Z,12.10
2018-04-17T23:30:42.986Z,10.83
2018-04-17T23:33:45.472Z,10.60
2018-04-17T23:36:47.923Z,11.07
2018-04-17T23:39:50.443Z,10.50
2018-04-17T23:42:52.957Z,11.00
2018-04-17T23:45:55.455Z,10.60
2018-04-17T23:48:57.971Z,11.43
2018-04-17T23:52:00.500Z,10.80
2018-04-17T23:55:02.998Z,10.50
2018-04-17T23:58:05.448Z,10.50
